createdAt,value
2018-07-27T00:02:26.450Z,23.57
2018-07-27T00:04:54.424Z,23.61
2018-07-27T00:07:23.250Z,23.62
2018-07-27T00:09:51.229Z,23.74
2018-07-27T00:12:19.343Z,23.76
2018-07-27T00:14:47.291Z,23.72
2018-07-27T00:17:16.129Z,23.74
2018-07-27T00:19:44.283Z,23.77
2018-07-27T00:22:12.092Z,23.74
2018-07-27T00:24:40.861Z,23.78
2018-07-27T00:27:08.993Z,23.71
2018-07-27T00:29:36.737Z,23.64
2018-07-27T00:32:04.652Z,23.56
2018-07-27T00:34:32.595Z,23.48
2018-07-27T00:37:00.559Z,23.40
2018-07-27T00:39:28.465Z,23.29
2018-07-27T00:41:56.512Z,23.19
2018-07-27T00:44:24.431Z,23.25
2018-07-27T00:46:52.324Z,23.26
2018-07-27T00:49:20.722Z,23.26
2018-07-27T00:51:48.558Z,23.24
2018-07-27T00:54:16.534Z,23.21
2018-07-27T00:56:44.453Z,23.17
2018-07-27T00:59:12.432Z,23.17
2018-07-27T01:01:40.184Z,23.13
2018-07-27T01:04:08.730Z,23.10
2018-07-27T01:06:36.545Z,23.04
2018-07-27T01:09:06.972Z,23.02
2018-07-27T01:11:34.948Z,23.01
2018-07-27T01:14:02.836Z,22.97
2018-07-27T01:16:30.684Z,22.96
2018-07-27T01:18:58.590Z,22.93
2018-07-27T01:21:27.501Z,22.94
2018-07-27T01:23:55.293Z,22.93
2018-07-27T01:26:23.266Z,22.92
2018-07-27T01:28:51.077Z,22.88
2018-07-27T01:31:18.884Z,22.84
2018-07-27T01:33:46.843Z,22.80
2018-07-27T01:36:14.708Z,22.78
2018-07-27T01:38:42.578Z,22.73
2018-07-27T01:41:10.398Z,22.72
2018-07-27T01:43:38.163Z,22.71
2018-07-27T01:46:06.102Z,22.72
2018-07-27T01:48:34.044Z,22.70
2018-07-27T01:51:02.001Z,22.67
2018-07-27T01:53:29.852Z,22.67
2018-07-27T01:55:58.082Z,22.60
2018-07-27T01:58:26.068Z,22.67
2018-07-27T02:00:53.992Z,22.66
2018-07-27T02:03:21.868Z,22.68
2018-07-27T02:05:49.735Z,22.71
2018-07-27T02:08:17.510Z,22.67
2018-07-27T02:10:45.483Z,22.69
2018-07-27T02:13:13.328Z,22.72
2018-07-27T02:15:41.166Z,22.70
2018-07-27T02:18:09.395Z,22.70
2018-07-27T02:20:37.241Z,22.71
2018-07-27T02:23:05.099Z,22.70
2018-07-27T02:25:33.159Z,22.69
2018-07-27T02:28:00.864Z,22.66
2018-07-27T02:30:28.796Z,22.63
2018-07-27T02:32:56.769Z,22.58
2018-07-27T02:35:24.608Z,22.57
2018-07-27T02:37:52.883Z,22.59
2018-07-27T02:40:20.857Z,22.59
2018-07-27T02:42:49.824Z,22.52
2018-07-27T02:45:17.656Z,22.51
2018-07-27T02:47:48.431Z,22.52
2018-07-27T02:50:16.539Z,22.59
2018-07-27T02:52:44.386Z,22.50
2018-07-27T02:55:12.201Z,22.50
2018-07-27T02:57:40.071Z,22.52
2018-07-27T03:00:08.199Z,22.48
2018-07-27T03:02:36.167Z,22.46
2018-07-27T03:05:04.511Z,22.43
2018-07-27T03:07:32.468Z,22.44
2018-07-27T03:10:00.596Z,22.44
2018-07-27T03:12:28.555Z,22.43
2018-07-27T03:14:56.431Z,22.48
2018-07-27T03:17:24.441Z,22.29
2018-07-27T03:19:52.239Z,22.34
2018-07-27T03:22:20.114Z,22.37
2018-07-27T03:24:48.016Z,22.41
2018-07-27T03:27:15.912Z,22.40
2018-07-27T03:29:45.941Z,22.36
2018-07-27T03:32:13.787Z,22.39
2018-07-27T03:34:41.735Z,22.44
2018-07-27T03:37:09.637Z,22.40
2018-07-27T03:39:37.590Z,22.38
2018-07-27T03:42:05.535Z,22.48
2018-07-27T03:44:33.432Z,22.53
2018-07-27T03:47:01.473Z,22.62
2018-07-27T03:49:29.431Z,22.58
2018-07-27T03:51:57.279Z,22.61
2018-07-27T03:54:25.196Z,22.50
2018-07-27T03:56:53.153Z,22.67
2018-07-27T03:59:21.031Z,22.74
2018-07-27T04:01:48.900Z,22.81
2018-07-27T04:04:16.744Z,22.81
2018-07-27T04:06:44.699Z,22.81
2018-07-27T04:09:12.590Z,22.80
2018-07-27T04:11:40.626Z,22.69
2018-07-27T04:14:08.796Z,22.60
2018-07-27T04:16:36.676Z,22.53
2018-07-27T04:19:04.480Z,22.58
2018-07-27T04:21:32.391Z,22.67
2018-07-27T04:24:00.303Z,22.73
2018-07-27T04:26:28.189Z,22.84
2018-07-27T04:28:55.973Z,23.00
2018-07-27T04:31:23.873Z,23.02
2018-07-27T04:33:51.799Z,23.22
2018-07-27T04:36:19.690Z,23.37
2018-07-27T04:38:47.607Z,23.44
2018-07-27T04:41:16.153Z,23.44
2018-07-27T04:43:43.985Z,23.46
2018-07-27T04:46:11.863Z,23.46
2018-07-27T04:48:39.828Z,23.35
2018-07-27T04:51:07.685Z,23.45
2018-07-27T04:53:35.560Z,23.45
2018-07-27T04:56:03.480Z,23.47
2018-07-27T04:58:32.572Z,23.45
2018-07-27T05:01:00.680Z,23.44
2018-07-27T05:03:28.520Z,23.48
2018-07-27T05:05:56.571Z,23.60
2018-07-27T05:08:24.493Z,23.58
2018-07-27T05:10:52.491Z,23.69
2018-07-27T05:13:20.290Z,23.81
2018-07-27T05:15:49.035Z,23.90
2018-07-27T05:18:17.582Z,23.92
2018-07-27T05:20:45.678Z,23.84
2018-07-27T05:23:14.574Z,23.96
2018-07-27T05:25:42.572Z,23.98
2018-07-27T05:28:10.414Z,24.11
2018-07-27T05:30:38.259Z,24.13
2018-07-27T05:33:06.291Z,24.10
2018-07-27T05:35:34.144Z,24.27
2018-07-27T05:38:02.128Z,24.42
2018-07-27T05:40:30.130Z,24.53
2018-07-27T05:42:58.041Z,24.52
2018-07-27T05:45:25.940Z,24.63
2018-07-27T05:47:53.870Z,24.68
2018-07-27T05:50:21.838Z,24.85
2018-07-27T05:52:50.300Z,24.95
2018-07-27T05:55:18.151Z,25.01
2018-07-27T05:57:45.994Z,25.01
2018-07-27T06:00:14.163Z,25.11
2018-07-27T06:02:42.005Z,25.19
2018-07-27T06:05:09.887Z,25.27
2018-07-27T06:07:38.291Z,25.49
2018-07-27T06:10:06.643Z,25.69
2018-07-27T06:12:35.014Z,25.81
2018-07-27T06:15:02.999Z,25.90
2018-07-27T06:17:30.912Z,25.93
2018-07-27T06:19:58.695Z,25.94
2018-07-27T06:22:26.929Z,25.98
2018-07-27T06:24:55.831Z,26.05
2018-07-27T06:27:24.055Z,26.15
2018-07-27T06:29:52.464Z,26.28
2018-07-27T06:32:20.362Z,26.32
2018-07-27T06:34:48.206Z,26.41
2018-07-27T06:37:16.283Z,26.45
2018-07-27T06:39:45.234Z,26.31
2018-07-27T06:42:13.613Z,26.60
2018-07-27T06:44:41.856Z,26.70
2018-07-27T06:47:09.794Z,26.97
2018-07-27T06:49:37.735Z,27.23
2018-07-27T06:52:06.115Z,27.27
2018-07-27T06:54:34.172Z,27.17
2018-07-27T06:57:01.895Z,26.95
2018-07-27T06:59:30.009Z,27.03
2018-07-27T07:01:58.058Z,26.50
2018-07-27T07:04:26.393Z,26.56
2018-07-27T07:06:55.639Z,26.96
2018-07-27T07:09:23.489Z,27.18
2018-07-27T07:11:51.411Z,27.34
2018-07-27T07:14:19.405Z,26.91
2018-07-27T07:16:47.341Z,27.29
2018-07-27T07:19:15.290Z,27.50
2018-07-27T07:21:43.363Z,27.52
2018-07-27T07:24:11.279Z,27.77
2018-07-27T07:26:39.133Z,27.71
2018-07-27T07:29:07.475Z,27.88
2018-07-27T07:31:35.201Z,27.90
2018-07-27T07:34:02.982Z,27.84
2018-07-27T07:36:30.752Z,27.83
2018-07-27T07:38:58.509Z,27.84
2018-07-27T07:41:26.201Z,27.99
2018-07-27T07:43:54.458Z,27.82
2018-07-27T07:46:22.158Z,27.87
2018-07-27T07:48:49.981Z,28.13
2018-07-27T07:51:17.722Z,28.24
2018-07-27T07:53:45.432Z,28.46
2018-07-27T07:56:13.160Z,28.57
2018-07-27T07:58:41.048Z,28.78
2018-07-27T08:01:08.838Z,29.16
2018-07-27T08:03:36.575Z,29.12
2018-07-27T08:06:04.630Z,29.35
2018-07-27T08:08:32.370Z,29.37
2018-07-27T08:11:00.149Z,29.35
2018-07-27T08:13:28.210Z,29.59
2018-07-27T08:15:56.081Z,29.82
2018-07-27T08:18:24.941Z,30.02
2018-07-27T08:20:53.181Z,30.03
2018-07-27T08:23:20.950Z,30.03
2018-07-27T08:26:55.359Z,30.04
2018-07-27T08:29:25.475Z,30.12
2018-07-27T08:31:53.630Z,30.25
2018-07-27T08:34:21.922Z,30.33
2018-07-27T08:36:50.131Z,30.40
2018-07-27T08:39:22.218Z,30.47
2018-07-27T08:41:50.033Z,30.72
2018-07-27T08:44:19.161Z,30.84
2018-07-27T08:46:47.049Z,30.66
2018-07-27T08:49:14.727Z,30.80
2018-07-27T08:51:42.546Z,30.88
2018-07-27T08:54:10.810Z,30.72
2018-07-27T08:56:38.682Z,30.74
2018-07-27T08:59:06.681Z,30.58
2018-07-27T09:01:34.556Z,30.48
2018-07-27T09:04:02.476Z,30.53
2018-07-27T09:06:31.049Z,30.64
2018-07-27T09:08:59.088Z,30.59
2018-07-27T09:11:26.904Z,30.63
2018-07-27T09:13:55.173Z,30.69
2018-07-27T09:16:23.668Z,30.63
2018-07-27T09:18:52.095Z,30.87
2018-07-27T09:21:19.883Z,31.00
2018-07-27T09:23:48.181Z,30.99
2018-07-27T09:26:16.031Z,30.99
2018-07-27T09:28:43.830Z,31.03
2018-07-27T09:31:12.242Z,31.14
2018-07-27T09:33:40.231Z,31.10
2018-07-27T09:36:08.257Z,30.67
2018-07-27T09:38:36.206Z,31.07
2018-07-27T09:41:04.117Z,31.34
2018-07-27T09:43:31.946Z,31.66
2018-07-27T09:46:00.104Z,31.64
2018-07-27T09:48:27.985Z,31.61
2018-07-27T09:50:55.948Z,31.58
2018-07-27T09:53:24.142Z,31.78
2018-07-27T09:55:52.143Z,31.77
2018-07-27T09:58:20.033Z,31.95
2018-07-27T10:00:53.356Z,31.93
2018-07-27T10:03:21.288Z,31.89
2018-07-27T10:05:49.488Z,31.88
2018-07-27T10:08:17.534Z,31.89
2018-07-27T10:10:45.493Z,31.63
2018-07-27T10:13:13.459Z,31.73
2018-07-27T10:15:41.468Z,31.99
2018-07-27T10:18:09.504Z,31.81
2018-07-27T10:20:37.541Z,31.85
2018-07-27T10:23:05.997Z,31.45
2018-07-27T10:25:33.953Z,31.46
2018-07-27T10:28:01.952Z,31.31
2018-07-27T10:30:30.151Z,31.69
2018-07-27T10:32:58.186Z,31.97
2018-07-27T10:35:26.227Z,31.92
2018-07-27T10:37:54.352Z,32.16
2018-07-27T10:40:22.322Z,32.23
2018-07-27T10:42:50.276Z,32.22
2018-07-27T10:45:19.661Z,32.20
2018-07-27T10:47:47.616Z,32.24
2018-07-27T10:50:15.664Z,32.15
2018-07-27T10:52:43.757Z,31.64
2018-07-27T10:55:11.720Z,31.84
2018-07-27T10:57:39.746Z,31.87
2018-07-27T11:00:15.819Z,32.25
2018-07-27T11:02:43.734Z,32.46
2018-07-27T11:05:12.313Z,32.30
2018-07-27T11:07:40.511Z,32.11
2018-07-27T11:10:09.482Z,32.26
2018-07-27T11:12:37.502Z,32.19
2018-07-27T11:15:06.722Z,32.12
2018-07-27T11:17:34.703Z,32.71
2018-07-27T11:20:04.127Z,33.01
2018-07-27T11:22:32.541Z,32.80
2018-07-27T11:25:00.558Z,33.09
2018-07-27T11:27:28.394Z,33.42
2018-07-27T11:29:56.399Z,33.50
2018-07-27T11:32:24.580Z,33.38
2018-07-27T11:34:52.461Z,33.22
2018-07-27T11:37:21.308Z,33.36
2018-07-27T11:39:49.121Z,32.67
2018-07-27T11:42:18.135Z,31.65
2018-07-27T11:44:46.377Z,31.12
2018-07-27T11:47:14.442Z,31.24
2018-07-27T11:49:42.365Z,31.38
2018-07-27T11:52:10.883Z,31.12
2018-07-27T11:54:38.874Z,31.37
2018-07-27T11:57:06.933Z,31.68
2018-07-27T11:59:36.046Z,31.34
2018-07-27T12:02:04.000Z,31.30
2018-07-27T12:04:31.946Z,31.46
2018-07-27T12:07:00.460Z,31.60
2018-07-27T12:09:29.453Z,31.80
2018-07-27T12:11:57.526Z,31.91
2018-07-27T12:14:26.319Z,31.90
2018-07-27T12:16:54.217Z,32.24
2018-07-27T12:19:23.133Z,32.07
2018-07-27T12:21:51.172Z,31.63
2018-07-27T12:24:19.475Z,31.02
2018-07-27T12:26:47.524Z,30.71
2018-07-27T12:29:16.432Z,30.56
2018-07-27T12:31:44.378Z,30.69
2018-07-27T12:34:12.355Z,30.29
2018-07-27T12:36:40.305Z,29.60
2018-07-27T12:39:10.280Z,29.60
2018-07-27T12:41:40.334Z,29.54
2018-07-27T12:44:07.974Z,29.32
2018-07-27T12:46:36.127Z,29.31
2018-07-27T12:49:04.272Z,29.19
2018-07-27T12:51:32.563Z,29.05
2018-07-27T12:54:01.042Z,29.04
2018-07-27T12:56:28.857Z,29.35
2018-07-27T12:58:56.647Z,29.46
2018-07-27T13:01:24.414Z,29.45
2018-07-27T13:03:53.209Z,29.84
2018-07-27T13:06:21.120Z,29.80
2018-07-27T13:08:48.854Z,29.79
2018-07-27T13:11:17.090Z,29.81
2018-07-27T13:13:44.977Z,29.85
2018-07-27T13:16:12.710Z,29.72
2018-07-27T13:18:40.585Z,29.37
2018-07-27T13:21:08.342Z,29.38
2018-07-27T13:23:36.318Z,29.81
2018-07-27T13:28:36.089Z,30.15
2018-07-27T13:31:03.869Z,30.07
2018-07-27T13:33:32.037Z,30.13
2018-07-27T13:38:28.202Z,30.37
2018-07-27T13:40:56.497Z,30.44
2018-07-27T13:43:24.346Z,30.66
2018-07-27T13:45:52.106Z,31.04
2018-07-27T13:48:19.850Z,31.14
2018-07-27T13:50:47.542Z,30.88
2018-07-27T13:53:15.377Z,31.07
2018-07-27T13:55:43.573Z,30.90
2018-07-27T13:58:11.270Z,31.31
2018-07-27T14:00:39.149Z,31.51
2018-07-27T14:03:07.015Z,31.44
2018-07-27T14:05:34.698Z,31.73
2018-07-27T14:08:02.673Z,32.07
2018-07-27T14:10:30.438Z,32.21
2018-07-27T14:12:58.127Z,32.07
2018-07-27T14:15:26.099Z,31.63
2018-07-27T14:17:53.768Z,31.44
2018-07-27T14:20:21.445Z,31.54
2018-07-27T14:22:49.314Z,31.97
2018-07-27T14:25:17.097Z,32.26
2018-07-27T14:27:44.776Z,32.76
2018-07-27T14:30:12.775Z,32.79
2018-07-27T14:32:40.587Z,32.90
2018-07-27T14:35:08.394Z,32.93
2018-07-27T14:37:36.121Z,33.27
2018-07-27T14:40:04.355Z,33.01
2018-07-27T14:42:32.168Z,33.09
2018-07-27T14:45:00.201Z,32.28
2018-07-27T14:47:28.256Z,31.93
2018-07-27T14:49:55.887Z,30.44
2018-07-27T14:52:23.999Z,30.31
2018-07-27T14:54:51.709Z,30.03
2018-07-27T14:57:19.350Z,29.61
2018-07-27T14:59:47.738Z,28.81
2018-07-27T15:02:15.375Z,28.69
2018-07-27T15:04:43.084Z,28.69
2018-07-27T15:07:11.091Z,28.29
2018-07-27T15:09:38.790Z,28.34
2018-07-27T15:12:06.640Z,28.50
2018-07-27T15:14:34.593Z,28.64
2018-07-27T15:17:03.312Z,28.80
2018-07-27T15:19:31.218Z,28.87
2018-07-27T15:21:58.950Z,28.77
2018-07-27T15:24:26.681Z,28.74
2018-07-27T15:26:54.467Z,28.37
2018-07-27T15:29:22.371Z,28.12
2018-07-27T15:31:50.064Z,27.93
2018-07-27T15:34:17.725Z,27.86
2018-07-27T15:36:45.961Z,27.81
2018-07-27T15:39:13.713Z,27.57
2018-07-27T15:41:41.526Z,27.41
2018-07-27T15:44:09.507Z,27.36
2018-07-27T15:46:37.419Z,27.03
2018-07-27T15:49:05.172Z,26.74
2018-07-27T15:51:33.470Z,26.12
2018-07-27T15:54:01.215Z,26.38
2018-07-27T15:56:29.228Z,25.59
2018-07-27T15:58:57.030Z,26.04
2018-07-27T16:01:24.797Z,26.22
2018-07-27T16:03:52.579Z,26.08
2018-07-27T16:06:20.598Z,25.65
2018-07-27T16:08:48.399Z,25.65
2018-07-27T16:11:16.154Z,25.34
2018-07-27T16:13:43.986Z,25.40
2018-07-27T16:16:11.807Z,25.29
2018-07-27T16:18:39.701Z,25.40
2018-07-27T16:21:07.593Z,25.56
2018-07-27T16:23:35.469Z,25.58
2018-07-27T16:26:03.604Z,25.34
2018-07-27T16:28:31.382Z,25.36
2018-07-27T16:30:59.098Z,25.24
2018-07-27T16:33:26.865Z,25.26
2018-07-27T16:35:55.212Z,25.39
2018-07-27T16:38:23.002Z,25.35
2018-07-27T16:40:50.862Z,25.46
2018-07-27T16:43:19.133Z,25.37
2018-07-27T16:45:46.897Z,25.37
2018-07-27T16:48:14.669Z,25.19
2018-07-27T16:50:42.518Z,25.27
2018-07-27T16:53:10.286Z,25.31
2018-07-27T16:55:38.077Z,25.21
2018-07-27T16:58:06.379Z,25.21
2018-07-27T17:00:34.063Z,25.25
2018-07-27T17:03:02.008Z,25.15
2018-07-27T17:05:30.238Z,25.09
2018-07-27T17:07:58.049Z,25.04
2018-07-27T17:10:25.841Z,24.87
2018-07-27T17:12:53.815Z,25.06
2018-07-27T17:15:21.514Z,25.02
2018-07-27T17:17:49.222Z,24.99
2018-07-27T17:20:17.254Z,24.89
2018-07-27T17:22:44.967Z,24.74
2018-07-27T17:25:12.766Z,24.83
2018-07-27T17:27:40.721Z,24.86
2018-07-27T17:30:08.898Z,24.90
2018-07-27T17:32:37.287Z,24.83
2018-07-27T17:35:05.377Z,24.75
2018-07-27T17:37:34.019Z,24.67
2018-07-27T17:40:01.730Z,24.67
2018-07-27T17:42:29.669Z,24.64
2018-07-27T17:44:57.384Z,24.49
2018-07-27T17:47:25.221Z,24.46
2018-07-27T17:49:53.409Z,24.50
2018-07-27T17:52:21.452Z,24.41
2018-07-27T17:54:49.179Z,24.27
2018-07-27T17:57:16.993Z,24.37
2018-07-27T17:59:44.775Z,24.31
2018-07-27T18:02:12.458Z,24.34
2018-07-27T18:04:41.428Z,24.28
2018-07-27T18:07:09.244Z,24.07
2018-07-27T18:09:36.886Z,23.97
2018-07-27T18:12:04.676Z,23.91
2018-07-27T18:14:32.453Z,23.75
2018-07-27T18:17:00.262Z,23.86
2018-07-27T18:19:28.185Z,23.79
2018-07-27T18:21:55.900Z,23.69
2018-07-27T18:24:24.369Z,23.62
2018-07-27T18:26:52.430Z,23.60
2018-07-27T18:29:20.110Z,23.63
2018-07-27T18:31:47.889Z,23.73
2018-07-27T18:34:15.599Z,23.68
2018-07-27T18:36:43.301Z,23.86
2018-07-27T18:39:12.307Z,23.83
2018-07-27T18:41:40.013Z,23.90
2018-07-27T18:44:08.087Z,23.79
2018-07-27T18:46:36.108Z,23.74
2018-07-27T18:49:03.923Z,23.73
2018-07-27T18:51:31.752Z,23.76
2018-07-27T18:53:59.406Z,23.80
2018-07-27T18:56:27.268Z,23.75
2018-07-27T18:58:54.903Z,23.75
2018-07-27T19:01:22.634Z,23.77
2018-07-27T19:03:50.447Z,23.83
2018-07-27T19:06:18.213Z,23.77
2018-07-27T19:08:46.278Z,23.77
2018-07-27T19:11:14.010Z,23.78
2018-07-27T19:13:41.786Z,23.72
2018-07-27T19:16:10.059Z,23.58
2018-07-27T19:18:37.879Z,23.50
2018-07-27T19:21:05.610Z,23.34
2018-07-27T19:23:33.391Z,23.29
2018-07-27T19:26:01.170Z,23.26
2018-07-27T19:28:28.989Z,23.36
2018-07-27T19:30:56.837Z,23.44
2018-07-27T19:33:24.658Z,23.44
2018-07-27T19:35:52.514Z,23.43
2018-07-27T19:38:20.300Z,23.33
2018-07-27T19:40:48.046Z,23.28
2018-07-27T19:43:15.761Z,23.20
2018-07-27T19:45:44.078Z,23.19
2018-07-27T19:48:11.853Z,23.27
2018-07-27T19:50:39.662Z,23.28
2018-07-27T19:53:07.421Z,23.37
2018-07-27T19:55:35.270Z,23.27
2018-07-27T19:58:03.069Z,23.18
2018-07-27T20:00:30.888Z,23.16
2018-07-27T20:02:58.605Z,23.23
2018-07-27T20:05:26.425Z,23.23
2018-07-27T20:07:59.777Z,23.19
2018-07-27T20:10:27.648Z,23.14
2018-07-27T20:12:55.399Z,23.18
2018-07-27T20:15:23.544Z,23.19
2018-07-27T20:17:51.287Z,23.20
2018-07-27T20:20:19.083Z,23.20
2018-07-27T20:22:46.864Z,23.14
2018-07-27T20:25:14.595Z,23.12
2018-07-27T20:27:42.316Z,23.17
2018-07-27T20:30:10.046Z,23.04
2018-07-27T20:32:37.817Z,23.02
2018-07-27T20:35:05.566Z,22.99
2018-07-27T20:37:33.598Z,23.02
2018-07-27T20:40:01.472Z,22.96
2018-07-27T20:42:29.211Z,23.03
2018-07-27T20:44:57.314Z,23.01
2018-07-27T20:47:25.118Z,23.04
2018-07-27T20:49:52.823Z,23.01
2018-07-27T20:52:20.741Z,22.94
2018-07-27T20:54:48.523Z,22.95
2018-07-27T20:57:16.376Z,22.90
2018-07-27T20:59:44.376Z,22.88
2018-07-27T21:02:12.150Z,22.93
2018-07-27T21:04:39.886Z,22.90
2018-07-27T21:07:07.735Z,22.98
2018-07-27T21:09:35.565Z,22.93
2018-07-27T21:12:03.344Z,22.96
2018-07-27T21:14:31.256Z,22.92
2018-07-27T21:16:58.979Z,22.82
2018-07-27T21:19:26.737Z,22.82
2018-07-27T21:21:55.732Z,22.92
2018-07-27T21:24:23.442Z,22.84
2018-07-27T21:26:51.079Z,22.80
2018-07-27T21:29:19.271Z,22.74
2018-07-27T21:31:47.006Z,22.71
2018-07-27T21:34:14.717Z,22.73
2018-07-27T21:36:43.713Z,22.78
2018-07-27T21:39:12.995Z,22.74
2018-07-27T21:41:40.737Z,22.77
2018-07-27T21:44:08.682Z,22.73
2018-07-27T21:46:36.431Z,22.81
2018-07-27T21:49:04.198Z,22.87
2018-07-27T21:51:32.171Z,22.86
2018-07-27T21:53:59.910Z,22.90
2018-07-27T21:56:27.686Z,22.88
2018-07-27T21:58:55.479Z,22.85
2018-07-27T22:01:23.425Z,22.83
2018-07-27T22:03:51.126Z,22.82
2018-07-27T22:06:19.102Z,22.90
2018-07-27T22:08:46.814Z,22.89
2018-07-27T22:11:14.636Z,22.88
2018-07-27T22:13:42.732Z,22.81
2018-07-27T22:16:10.546Z,22.73
2018-07-27T22:18:38.338Z,22.72
2018-07-27T22:21:06.583Z,22.73
2018-07-27T22:23:34.447Z,22.79
2018-07-27T22:26:02.256Z,22.80
2018-07-27T22:28:30.014Z,22.77
2018-07-27T22:30:57.825Z,22.81
2018-07-27T22:33:25.590Z,22.80
2018-07-27T22:35:53.353Z,22.83
2018-07-27T22:38:21.168Z,22.80
2018-07-27T22:40:48.879Z,22.74
2018-07-27T22:43:16.844Z,22.63
2018-07-27T22:45:44.645Z,22.72
2018-07-27T22:48:12.366Z,22.77
2018-07-27T22:50:40.417Z,22.79
2018-07-27T22:53:08.193Z,22.88
2018-07-27T22:55:35.889Z,23.00
2018-07-27T22:58:05.034Z,23.04
2018-07-27T23:00:32.726Z,23.03
2018-07-27T23:03:00.588Z,22.97
2018-07-27T23:05:28.507Z,22.87
2018-07-27T23:07:56.250Z,22.81
2018-07-27T23:10:23.971Z,22.92
2018-07-27T23:12:51.850Z,22.93
2018-07-27T23:15:19.551Z,22.99
2018-07-27T23:17:47.272Z,22.89
2018-07-27T23:20:15.119Z,22.79
2018-07-27T23:22:43.576Z,22.76
2018-07-27T23:25:11.362Z,22.72
2018-07-27T23:27:39.538Z,22.72
2018-07-27T23:30:09.431Z,22.77
2018-07-27T23:32:37.130Z,22.81
2018-07-27T23:35:04.899Z,22.78
2018-07-27T23:37:32.531Z,22.75
2018-07-27T23:40:00.316Z,22.71
2018-07-27T23:42:28.101Z,22.72
2018-07-27T23:44:56.994Z,22.77
2018-07-27T23:47:24.770Z,22.77
2018-07-27T23:49:52.872Z,22.76
2018-07-27T23:52:20.821Z,22.69
2018-07-27T23:54:48.779Z,22.65
2018-07-27T23:57:17.037Z,22.55
2018-07-27T23:59:44.832Z,22.52
